createdAt,value
2019-04-26T00:01:07.718Z,26.52
2019-04-26T00:03:41.234Z,36.85
2019-04-26T00:06:14.879Z,27.62
2019-04-26T00:08:48.753Z,37.53
2019-04-26T00:11:22.466Z,29.07
2019-04-26T00:13:55.932Z,27.52
2019-04-26T00:16:29.851Z,32.73
2019-04-26T00:19:02.298Z,29.50
2019-04-26T00:21:34.830Z,23.73
2019-04-26T00:24:08.318Z,23.25
2019-04-26T00:26:40.888Z,22.07
2019-04-26T00:29:13.013Z,31.23
2019-04-26T00:31:45.460Z,26.90
2019-04-26T00:34:18.040Z,38.28
2019-04-26T00:36:50.107Z,32.08
2019-04-26T00:39:24.833Z,31.93
2019-04-26T00:41:56.613Z,35.25
2019-04-26T00:44:28.831Z,39.48
2019-04-26T00:47:04.691Z,31.10
2019-04-26T00:49:43.807Z,31.50
2019-04-26T00:52:15.749Z,27.77
2019-04-26T00:54:48.502Z,26.30
2019-04-26T00:57:24.867Z,28.87
2019-04-26T01:00:04.178Z,25.12
2019-04-26T01:02:39.002Z,26.30
2019-04-26T01:05:11.353Z,30.50
2019-04-26T01:07:44.759Z,21.17
2019-04-26T01:10:19.667Z,22.58
2019-04-26T01:12:52.231Z,24.55
2019-04-26T01:15:24.775Z,32.10
2019-04-26T01:17:57.255Z,35.63
2019-04-26T01:20:32.170Z,26.30
2019-04-26T01:23:07.931Z,25.23
2019-04-26T01:25:43.880Z,29.60
2019-04-26T01:28:19.755Z,31.33
2019-04-26T01:30:53.603Z,32.85
2019-04-26T01:33:26.997Z,32.00
2019-04-26T01:36:12.444Z,30.57
2019-04-26T01:38:34.566Z,25.25
2019-04-26T01:41:09.706Z,24.32
2019-04-26T01:43:44.494Z,27.80
2019-04-26T01:46:22.959Z,27.20
2019-04-26T01:48:59.229Z,23.67
2019-04-26T01:51:34.960Z,28.00
2019-04-26T01:54:08.174Z,39.85
2019-04-26T01:56:40.509Z,24.92
2019-04-26T01:59:16.803Z,27.25
2019-04-26T02:01:50.395Z,28.10
2019-04-26T02:04:32.075Z,25.10
2019-04-26T02:07:05.051Z,20.32
2019-04-26T02:09:56.205Z,26.17
2019-04-26T02:12:29.286Z,30.55
2019-04-26T02:15:02.180Z,20.20
2019-04-26T02:17:34.280Z,30.92
2019-04-26T02:20:08.629Z,22.02
2019-04-26T02:22:43.396Z,27.42
2019-04-26T02:25:16.131Z,21.77
2019-04-26T02:27:48.313Z,23.18
2019-04-26T02:30:20.329Z,22.20
2019-04-26T02:32:53.045Z,26.52
2019-04-26T02:35:28.566Z,29.87
2019-04-26T02:38:00.400Z,28.92
2019-04-26T02:40:34.731Z,27.80
2019-04-26T02:43:07.098Z,27.67
2019-04-26T02:45:44.118Z,24.05
2019-04-26T02:48:19.356Z,21.55
2019-04-26T02:50:56.544Z,25.80
2019-04-26T02:53:33.666Z,23.90
2019-04-26T02:56:15.188Z,27.22
2019-04-26T02:58:50.947Z,27.93
2019-04-26T03:01:23.591Z,25.00
2019-04-26T03:03:56.274Z,27.30
2019-04-26T03:06:34.312Z,56.80
2019-04-26T03:09:08.865Z,26.35
2019-04-26T03:11:48.533Z,24.95
2019-04-26T03:14:21.768Z,24.50
2019-04-26T03:17:00.709Z,23.20
2019-04-26T03:19:39.444Z,31.73
2019-04-26T03:22:15.688Z,23.02
2019-04-26T03:24:51.083Z,22.87
2019-04-26T03:27:44.516Z,28.25
2019-04-26T03:30:22.741Z,27.55
2019-04-26T03:32:57.390Z,33.20
2019-04-26T03:35:43.915Z,24.90
2019-04-26T03:40:48.576Z,22.05
2019-04-26T03:43:23.950Z,20.48
2019-04-26T03:45:59.369Z,26.25
2019-04-26T03:48:35.903Z,25.70
2019-04-26T03:51:17.415Z,21.05
2019-04-26T03:54:02.225Z,21.65
2019-04-26T03:56:57.283Z,26.05
2019-04-26T03:59:46.185Z,24.63
2019-04-26T04:02:23.161Z,23.07
2019-04-26T04:05:00.122Z,21.77
2019-04-26T04:07:53.439Z,28.02
2019-04-26T04:10:29.856Z,25.37
2019-04-26T04:13:05.730Z,24.57
2019-04-26T04:15:42.578Z,21.75
2019-04-26T04:18:20.720Z,31.90
2019-04-26T04:20:57.730Z,25.23
2019-04-26T04:23:33.071Z,26.90
2019-04-26T04:26:09.229Z,26.80
2019-04-26T04:28:46.515Z,27.00
2019-04-26T04:31:23.980Z,31.42
2019-04-26T04:34:17.404Z,21.75
2019-04-26T04:36:53.650Z,23.25
2019-04-26T04:39:30.920Z,21.87
2019-04-26T04:42:07.995Z,22.95
2019-04-26T04:44:45.960Z,24.98
2019-04-26T04:47:25.342Z,27.30
2019-04-26T04:50:01.612Z,23.00
2019-04-26T04:52:37.772Z,26.68
2019-04-26T04:55:13.272Z,24.35
2019-04-26T04:57:50.174Z,22.55
2019-04-26T05:00:27.793Z,27.20
2019-04-26T05:03:06.315Z,26.60
2019-04-26T05:05:43.619Z,20.62
2019-04-26T05:08:29.087Z,20.35
2019-04-26T05:11:07.643Z,30.50
2019-04-26T05:13:50.021Z,24.92
2019-04-26T05:16:53.316Z,22.80
2019-04-26T05:19:30.297Z,21.75
2019-04-26T05:22:05.950Z,24.00
2019-04-26T05:24:59.433Z,24.85
2019-04-26T05:27:37.613Z,28.32
2019-04-26T05:32:48.690Z,22.55
2019-04-26T05:35:25.735Z,22.20
2019-04-26T05:38:01.202Z,26.60
2019-04-26T05:40:38.464Z,22.07
2019-04-26T05:43:15.184Z,22.83
2019-04-26T05:45:52.196Z,23.02
2019-04-26T05:48:29.070Z,22.77
2019-04-26T05:51:05.948Z,29.35
2019-04-26T05:53:42.688Z,27.22
2019-04-26T05:56:41.826Z,24.60
2019-04-26T05:59:18.392Z,24.60
2019-04-26T06:02:13.360Z,21.87
2019-04-26T06:04:51.972Z,21.05
2019-04-26T06:07:30.037Z,20.92
2019-04-26T06:10:05.202Z,24.60
2019-04-26T06:12:42.129Z,23.30
2019-04-26T06:15:19.151Z,26.55
2019-04-26T06:17:55.244Z,24.97
2019-04-26T06:20:30.731Z,28.23
2019-04-26T06:23:06.567Z,21.80
2019-04-26T06:25:43.593Z,26.60
2019-04-26T06:28:20.259Z,22.87
2019-04-26T06:30:55.526Z,20.80
2019-04-26T06:33:31.129Z,25.70
2019-04-26T06:36:10.696Z,19.65
2019-04-26T06:38:47.791Z,23.62
2019-04-26T06:41:23.832Z,23.30
2019-04-26T06:44:01.339Z,21.02
2019-04-26T06:46:39.250Z,22.50
2019-04-26T06:51:49.464Z,21.87
2019-04-26T06:54:25.231Z,22.22
2019-04-26T06:57:08.812Z,19.02
2019-04-26T06:59:39.126Z,21.77
2019-04-26T07:02:14.579Z,19.17
2019-04-26T07:04:51.197Z,20.27
2019-04-26T07:10:30.329Z,19.80
2019-04-26T07:13:07.832Z,22.82
2019-04-26T07:15:46.410Z,20.25
2019-04-26T07:18:22.278Z,21.65
2019-04-26T07:21:00.606Z,15.80
2019-04-26T07:23:46.098Z,16.82
2019-04-26T07:26:22.232Z,18.55
2019-04-26T07:28:57.683Z,23.62
2019-04-26T07:31:51.283Z,24.82
2019-04-26T07:34:27.993Z,16.90
2019-04-26T07:37:04.576Z,19.45
2019-04-26T07:39:41.407Z,21.42
2019-04-26T07:42:18.360Z,16.55
2019-04-26T07:44:55.772Z,19.57
2019-04-26T07:47:31.731Z,18.12
2019-04-26T07:50:11.900Z,19.55
2019-04-26T07:52:47.807Z,24.92
2019-04-26T07:55:27.488Z,17.75
2019-04-26T07:58:04.966Z,23.02
2019-04-26T08:01:00.995Z,16.70
2019-04-26T08:03:37.966Z,22.27
2019-04-26T08:06:13.766Z,20.40
2019-04-26T08:08:50.615Z,15.58
2019-04-26T08:11:26.076Z,20.23
2019-04-26T08:14:01.537Z,19.25
2019-04-26T08:16:37.941Z,20.27
2019-04-26T08:19:14.696Z,35.78
2019-04-26T08:21:50.303Z,20.23
2019-04-26T08:24:28.278Z,18.85
2019-04-26T08:27:13.691Z,19.30
2019-04-26T08:29:41.297Z,23.80
2019-04-26T08:32:17.819Z,24.35
2019-04-26T08:35:17.236Z,20.90
2019-04-26T08:37:49.722Z,20.23
2019-04-26T08:40:31.063Z,16.80
2019-04-26T08:45:40.459Z,22.17
2019-04-26T08:48:34.979Z,21.00
2019-04-26T08:51:10.881Z,20.37
2019-04-26T08:53:46.455Z,15.83
2019-04-26T08:56:22.592Z,21.60
2019-04-26T08:58:58.363Z,20.08
2019-04-26T09:01:36.159Z,20.92
2019-04-26T09:04:11.916Z,16.65
2019-04-26T09:07:06.821Z,22.65
2019-04-26T09:09:42.833Z,21.55
2019-04-26T09:12:23.356Z,23.10
2019-04-26T09:15:09.100Z,22.90
2019-04-26T09:17:41.638Z,18.02
2019-04-26T09:20:27.767Z,17.35
2019-04-26T09:22:51.064Z,19.02
2019-04-26T09:28:26.176Z,32.25
2019-04-26T09:30:59.826Z,22.52
2019-04-26T09:33:35.890Z,20.08
2019-04-26T09:36:07.743Z,22.07
2019-04-26T09:38:41.169Z,22.75
2019-04-26T09:41:13.217Z,18.60
2019-04-26T09:43:58.768Z,21.70
2019-04-26T09:46:34.420Z,20.80
2019-04-26T09:49:19.951Z,17.87
2019-04-26T09:51:52.506Z,19.02
2019-04-26T09:54:24.423Z,19.12
2019-04-26T09:56:57.545Z,23.73
2019-04-26T09:59:29.710Z,23.75
2019-04-26T10:02:05.280Z,21.57
2019-04-26T10:04:37.764Z,24.43
2019-04-26T10:07:10.018Z,24.25
2019-04-26T10:09:42.302Z,27.17
2019-04-26T10:12:16.570Z,24.40
2019-04-26T10:14:58.150Z,23.20
2019-04-26T10:17:31.453Z,26.75
2019-04-26T10:20:04.118Z,26.80
2019-04-26T10:22:41.304Z,25.88
2019-04-26T10:25:16.552Z,23.33
2019-04-26T10:27:47.697Z,27.52
2019-04-26T10:30:19.924Z,31.27
2019-04-26T10:32:51.449Z,25.12
2019-04-26T10:35:23.531Z,21.45
2019-04-26T10:37:56.651Z,21.30
2019-04-26T10:40:35.418Z,52.98
2019-04-26T10:43:02.631Z,32.98
2019-04-26T10:45:34.736Z,22.98
2019-04-26T10:48:09.659Z,19.50
2019-04-26T10:50:41.910Z,29.52
2019-04-26T10:53:16.114Z,21.93
2019-04-26T10:55:50.172Z,22.20
2019-04-26T10:58:23.696Z,26.90
2019-04-26T11:00:57.258Z,25.95
2019-04-26T11:03:29.337Z,26.77
2019-04-26T11:06:02.312Z,29.82
2019-04-26T11:08:34.249Z,32.13
2019-04-26T11:11:09.711Z,25.15
2019-04-26T11:13:41.588Z,31.70
2019-04-26T11:16:14.803Z,34.35
2019-04-26T11:18:46.930Z,28.23
2019-04-26T11:21:20.849Z,33.33
2019-04-26T11:23:53.420Z,33.75
2019-04-26T11:26:25.340Z,29.45
2019-04-26T11:28:58.054Z,31.37
2019-04-26T11:31:30.742Z,30.17
2019-04-26T11:34:05.388Z,29.32
2019-04-26T11:36:37.566Z,28.47
2019-04-26T11:39:14.664Z,36.23
2019-04-26T11:41:47.442Z,28.32
2019-04-26T11:44:23.429Z,26.80
2019-04-26T11:46:53.699Z,33.25
2019-04-26T11:49:27.598Z,28.92
2019-04-26T11:52:04.080Z,40.30
2019-04-26T11:54:36.371Z,36.17
2019-04-26T11:57:12.127Z,34.85
2019-04-26T11:59:43.024Z,32.08
2019-04-26T12:02:16.114Z,38.08
2019-04-26T12:04:53.877Z,31.95
2019-04-26T12:07:25.319Z,30.32
2019-04-26T12:09:58.858Z,28.42
2019-04-26T12:12:30.969Z,32.30
2019-04-26T12:15:04.050Z,30.52
2019-04-26T12:17:36.912Z,28.38
2019-04-26T12:20:11.945Z,27.93
2019-04-26T12:22:44.953Z,24.40
2019-04-26T12:25:17.201Z,31.10
2019-04-26T12:27:53.236Z,30.17
2019-04-26T12:30:42.095Z,26.02
2019-04-26T12:33:14.887Z,30.45
2019-04-26T12:35:47.108Z,28.50
2019-04-26T12:38:19.649Z,27.93
2019-04-26T12:40:51.688Z,40.05
2019-04-26T12:43:24.556Z,32.00
2019-04-26T12:46:02.561Z,25.32
2019-04-26T12:48:34.551Z,25.60
2019-04-26T12:51:08.248Z,26.07
2019-04-26T12:53:41.054Z,29.02
2019-04-26T12:56:13.224Z,27.93
2019-04-26T12:58:45.759Z,31.87
2019-04-26T13:01:19.982Z,34.53
2019-04-26T13:03:53.649Z,32.60
2019-04-26T13:06:27.809Z,33.53
2019-04-26T13:08:59.690Z,30.65
2019-04-26T13:11:31.607Z,29.48
2019-04-26T13:14:05.629Z,29.52
2019-04-26T13:16:42.693Z,25.55
2019-04-26T13:19:15.992Z,24.15
2019-04-26T13:21:51.309Z,17.10
2019-04-26T13:24:23.608Z,19.95
2019-04-26T13:26:55.961Z,14.38
2019-04-26T13:29:31.119Z,18.87
2019-04-26T13:32:02.046Z,19.55
2019-04-26T13:34:53.533Z,21.70
2019-04-26T13:37:25.936Z,20.55
2019-04-26T13:39:58.329Z,23.60
2019-04-26T13:42:30.776Z,22.80
2019-04-26T13:45:04.339Z,24.75
2019-04-26T13:47:37.768Z,39.48
2019-04-26T13:50:14.089Z,38.40
2019-04-26T13:52:46.914Z,40.60
2019-04-26T13:55:19.403Z,42.33
2019-04-26T13:57:51.653Z,39.10
2019-04-26T14:00:25.550Z,34.03
2019-04-26T14:02:57.690Z,33.28
2019-04-26T14:05:29.955Z,38.80
2019-04-26T14:08:04.078Z,27.15
2019-04-26T14:10:36.266Z,31.42
2019-04-26T14:13:08.611Z,21.48
2019-04-26T14:15:44.052Z,21.23
2019-04-26T14:18:14.721Z,22.73
2019-04-26T14:20:46.867Z,15.93
2019-04-26T14:23:20.228Z,23.32
2019-04-26T14:25:55.413Z,17.98
2019-04-26T14:28:26.142Z,18.75
2019-04-26T14:30:58.880Z,20.45
2019-04-26T14:33:32.069Z,18.42
2019-04-26T14:36:17.133Z,15.68
2019-04-26T14:38:43.054Z,16.65
2019-04-26T14:41:22.015Z,18.55
2019-04-26T14:43:52.655Z,17.42
2019-04-26T14:46:23.146Z,17.12
2019-04-26T14:49:02.005Z,16.90
2019-04-26T14:51:29.705Z,19.25
2019-04-26T14:54:03.120Z,16.55
2019-04-26T14:56:35.209Z,14.95
2019-04-26T14:59:09.917Z,16.02
2019-04-26T15:01:42.452Z,14.35
2019-04-26T15:04:15.840Z,14.75
2019-04-26T15:06:53.452Z,18.75
2019-04-26T15:09:36.592Z,15.18
2019-04-26T15:12:14.144Z,21.35
2019-04-26T15:14:43.729Z,17.25
2019-04-26T15:17:19.465Z,16.17
2019-04-26T15:19:56.915Z,23.42
2019-04-26T15:22:29.713Z,18.12
2019-04-26T15:25:20.998Z,16.02
2019-04-26T15:27:53.060Z,18.48
2019-04-26T15:30:25.179Z,19.55
2019-04-26T15:32:57.874Z,23.83
2019-04-26T15:35:32.661Z,19.77
2019-04-26T15:38:03.875Z,23.98
2019-04-26T15:40:38.271Z,19.57
2019-04-26T15:43:14.833Z,19.62
2019-04-26T15:45:47.622Z,18.62
2019-04-26T15:48:22.667Z,17.73
2019-04-26T15:50:55.740Z,21.17
2019-04-26T15:53:27.771Z,15.00
2019-04-26T15:56:02.463Z,15.05
2019-04-26T15:58:38.571Z,25.20
2019-04-26T16:01:10.883Z,17.75
2019-04-26T16:03:44.640Z,14.30
2019-04-26T16:06:16.736Z,15.78
2019-04-26T16:08:49.287Z,12.85
2019-04-26T16:11:21.561Z,16.77
2019-04-26T16:13:55.402Z,14.95
2019-04-26T16:16:29.193Z,17.32
2019-04-26T16:19:02.974Z,23.18
2019-04-26T16:21:35.990Z,16.23
2019-04-26T16:24:08.033Z,15.70
2019-04-26T16:26:44.607Z,13.45
2019-04-26T16:29:18.235Z,17.27
2019-04-26T16:31:53.093Z,17.37
2019-04-26T16:34:26.513Z,18.62
2019-04-26T16:36:58.870Z,18.05
2019-04-26T16:39:38.278Z,18.73
2019-04-26T16:42:07.331Z,17.40
2019-04-26T16:44:38.271Z,15.23
2019-04-26T16:47:10.397Z,19.32
2019-04-26T16:49:46.240Z,19.25
2019-04-26T16:52:16.806Z,17.25
2019-04-26T16:54:48.857Z,16.10
2019-04-26T16:57:24.306Z,16.90
2019-04-26T16:59:59.896Z,18.37
2019-04-26T17:02:34.234Z,13.22
2019-04-26T17:05:14.574Z,13.58
2019-04-26T17:07:39.456Z,14.05
2019-04-26T17:10:12.180Z,19.52
2019-04-26T17:12:46.216Z,16.32
2019-04-26T17:15:20.995Z,13.90
2019-04-26T17:17:52.788Z,14.58
2019-04-26T17:20:25.158Z,11.10
2019-04-26T17:23:00.935Z,17.32
2019-04-26T17:25:33.921Z,14.20
2019-04-26T17:28:06.935Z,16.35
2019-04-26T17:30:42.434Z,16.00
2019-04-26T17:33:13.143Z,13.48
2019-04-26T17:35:45.367Z,16.52
2019-04-26T17:38:17.541Z,11.08
2019-04-26T17:40:50.490Z,13.35
2019-04-26T17:43:22.682Z,10.80
2019-04-26T17:45:54.928Z,11.63
2019-04-26T17:48:27.025Z,16.15
2019-04-26T17:50:59.079Z,12.45
2019-04-26T17:53:33.606Z,15.93
2019-04-26T17:56:04.772Z,12.50
2019-04-26T17:58:49.821Z,11.70
2019-04-26T18:01:12.120Z,13.90
2019-04-26T18:03:51.298Z,13.53
2019-04-26T18:06:29.014Z,13.93
2019-04-26T18:08:54.728Z,12.47
2019-04-26T18:11:25.741Z,13.90
2019-04-26T18:13:58.035Z,14.07
2019-04-26T18:16:34.415Z,14.20
2019-04-26T18:19:07.061Z,13.68
2019-04-26T18:21:40.492Z,13.65
2019-04-26T18:24:13.183Z,16.17
2019-04-26T18:26:45.130Z,14.83
2019-04-26T18:29:17.556Z,14.63
2019-04-26T18:31:49.821Z,15.20
2019-04-26T18:34:23.160Z,14.65
2019-04-26T18:37:16.035Z,10.98
2019-04-26T18:39:48.830Z,11.65
2019-04-26T18:42:27.339Z,13.48
2019-04-26T18:47:33.126Z,9.30
2019-04-26T18:50:06.776Z,13.00
2019-04-26T18:52:41.098Z,13.85
2019-04-26T18:55:16.376Z,11.70
2019-04-26T18:57:55.883Z,12.25
2019-04-26T19:00:26.451Z,13.50
2019-04-26T19:03:00.074Z,13.95
2019-04-26T19:05:33.804Z,12.23
2019-04-26T19:08:07.592Z,12.20
2019-04-26T19:10:40.559Z,11.65
2019-04-26T19:13:14.374Z,17.60
2019-04-26T19:15:47.907Z,14.40
2019-04-26T19:18:22.093Z,11.97
2019-04-26T19:20:55.585Z,17.65
2019-04-26T19:23:29.199Z,21.10
2019-04-26T19:26:01.962Z,14.00
2019-04-26T19:28:36.007Z,21.80
2019-04-26T19:31:08.341Z,15.05
2019-04-26T19:33:40.690Z,12.55
2019-04-26T19:36:17.664Z,17.60
2019-04-26T19:38:49.806Z,14.68
2019-04-26T19:41:27.264Z,17.20
2019-04-26T19:44:01.781Z,26.68
2019-04-26T19:46:34.701Z,17.25
2019-04-26T19:49:09.223Z,19.37
2019-04-26T19:51:43.644Z,13.68
2019-04-26T19:54:38.464Z,11.28
2019-04-26T19:57:09.745Z,12.60
2019-04-26T19:59:42.405Z,11.90
2019-04-26T20:02:16.068Z,17.55
2019-04-26T20:04:48.365Z,13.43
2019-04-26T20:07:20.445Z,14.33
2019-04-26T20:09:56.348Z,13.13
2019-04-26T20:12:29.375Z,11.93
2019-04-26T20:15:02.298Z,13.18
2019-04-26T20:17:34.671Z,12.55
2019-04-26T20:20:19.235Z,11.95
2019-04-26T20:22:42.133Z,11.93
2019-04-26T20:25:14.659Z,16.30
2019-04-26T20:27:47.128Z,14.68
2019-04-26T20:30:24.410Z,10.18
2019-04-26T20:32:56.396Z,12.20
2019-04-26T20:35:31.759Z,14.43
2019-04-26T20:38:04.901Z,15.35
2019-04-26T20:40:37.184Z,14.83
2019-04-26T20:43:20.975Z,14.18
2019-04-26T20:46:07.686Z,12.45
2019-04-26T20:48:17.678Z,13.55
2019-04-26T20:50:49.846Z,15.18
2019-04-26T20:53:21.744Z,14.45
2019-04-26T20:55:54.161Z,13.75
2019-04-26T20:58:27.319Z,13.18
2019-04-26T21:01:01.360Z,15.43
2019-04-26T21:03:41.725Z,17.90
2019-04-26T21:06:07.848Z,17.23
2019-04-26T21:08:40.090Z,20.77
2019-04-26T21:11:13.721Z,15.23
2019-04-26T21:13:46.312Z,15.83
2019-04-26T21:16:18.350Z,16.35
2019-04-26T21:18:52.420Z,15.05
2019-04-26T21:21:25.179Z,16.65
2019-04-26T21:23:57.391Z,15.32
2019-04-26T21:26:32.222Z,14.10
2019-04-26T21:29:06.783Z,13.40
2019-04-26T21:31:45.504Z,14.07
2019-04-26T21:34:16.674Z,15.80
2019-04-26T21:36:50.367Z,17.40
2019-04-26T21:39:23.976Z,16.85
2019-04-26T21:41:57.876Z,15.55
2019-04-26T21:44:30.042Z,17.57
2019-04-26T21:47:03.351Z,19.70
2019-04-26T21:49:38.004Z,22.93
2019-04-26T21:52:09.317Z,15.20
2019-04-26T21:54:43.082Z,15.88
2019-04-26T21:57:18.289Z,16.87
2019-04-26T21:59:54.087Z,19.60
2019-04-26T22:02:29.610Z,19.32
2019-04-26T22:05:03.548Z,19.73
2019-04-26T22:07:39.436Z,20.48
2019-04-26T22:10:11.417Z,17.25
2019-04-26T22:12:45.091Z,17.98
2019-04-26T22:15:18.930Z,17.35
2019-04-26T22:17:54.522Z,16.30
2019-04-26T22:20:28.047Z,15.63
2019-04-26T22:23:01.453Z,19.27
2019-04-26T22:25:34.877Z,16.55
2019-04-26T22:28:07.360Z,21.15
2019-04-26T22:30:39.663Z,23.18
2019-04-26T22:33:13.187Z,21.35
2019-04-26T22:35:45.626Z,16.05
2019-04-26T22:38:23.594Z,22.77
2019-04-26T22:40:54.759Z,17.90
2019-04-26T22:43:26.644Z,20.68
2019-04-26T22:46:02.912Z,20.12
2019-04-26T22:48:35.990Z,23.35
2019-04-26T22:51:08.699Z,23.02
2019-04-26T22:53:40.665Z,21.57
2019-04-26T22:56:13.357Z,20.72
2019-04-26T22:58:45.732Z,22.85
2019-04-26T23:01:18.665Z,23.73
2019-04-26T23:03:50.784Z,24.20
2019-04-26T23:06:24.538Z,23.80
2019-04-26T23:08:56.817Z,21.87
2019-04-26T23:11:29.411Z,22.65
2019-04-26T23:14:03.437Z,19.42
2019-04-26T23:16:40.460Z,20.32
2019-04-26T23:19:15.240Z,27.15
2019-04-26T23:21:52.975Z,28.70
2019-04-26T23:24:21.432Z,23.40
2019-04-26T23:26:54.080Z,31.80
2019-04-26T23:29:26.685Z,27.52
2019-04-26T23:31:59.337Z,21.95
2019-04-26T23:34:33.344Z,29.55
2019-04-26T23:37:27.630Z,30.27
2019-04-26T23:39:59.300Z,23.92
2019-04-26T23:42:54.057Z,20.23
2019-04-26T23:45:25.482Z,27.90
2019-04-26T23:47:57.580Z,28.38
2019-04-26T23:50:30.517Z,19.98
2019-04-26T23:53:03.106Z,26.93
2019-04-26T23:55:38.104Z,21.97
2019-04-26T23:58:10.647Z,21.02
